Time,TemperatureF,DewpointF,PressureIn,WindDirection,WindDirectionDegrees,WindSpeedMPH,WindSpeedGustMPH,Humidity,HourlyPrecipIn,Conditions,Clouds,dailyrainin,SoftwareType,DateUTC
2013-06-19 00:01:00,67.0,64.0,-100.00,NNE,30,13.0,18.0,89,-99.99,,,-99.99,,2013-06-19 04:01:00,
2013-06-19 00:11:00,67.0,64.0,-100.00,NNE,30,13.0,18.0,89,-99.99,,,-99.99,,2013-06-19 04:11:00,
2013-06-19 00:22:00,67.0,64.0,-100.00,NNE,30,13.0,20.0,89,-99.99,,,-99.99,,2013-06-19 04:22:00,
2013-06-19 00:32:00,67.0,63.0,-100.00,NE,50,16.0,22.0,88,-99.99,,,-99.99,,2013-06-19 04:32:00,
2013-06-19 00:42:00,67.0,64.0,-100.00,NNE,30,13.0,18.0,88,-99.99,,,-99.99,,2013-06-19 04:42:00,
2013-06-19 00:52:00,67.0,64.0,-100.00,NNE,30,13.0,18.0,88,-99.99,,,-99.99,,2013-06-19 04:52:00,
2013-06-19 01:01:00,67.0,63.0,-100.00,NNE,30,13.0,18.0,88,-99.99,,,-99.99,,2013-06-19 05:01:00,
2013-06-19 01:11:00,67.0,63.0,-100.00,NNE,30,13.0,18.0,88,-99.99,,,-99.99,,2013-06-19 05:11:00,
2013-06-19 01:22:00,67.0,63.0,-100.00,NNE,20,13.0,20.0,89,-99.99,,,-99.99,,2013-06-19 05:22:00,
2013-06-19 01:32:00,66.0,63.0,-100.00,NNE,20,16.0,20.0,90,-99.99,,,-99.99,,2013-06-19 05:32:00,
2013-06-19 01:42:00,65.0,63.0,-100.00,NNE,20,18.0,22.0,91,-99.99,,,-99.99,,2013-06-19 05:42:00,
2013-06-19 01:52:00,65.0,63.0,-100.00,NNE,20,18.0,22.0,91,-99.99,,,-99.99,,2013-06-19 05:52:00,
2013-06-19 02:01:00,65.0,62.0,-100.00,NNE,20,16.0,22.0,90,-99.99,,,-99.99,,2013-06-19 06:01:00,
2013-06-19 02:11:00,65.0,62.0,-100.00,NNE,20,16.0,22.0,90,-99.99,,,-99.99,,2013-06-19 06:11:00,
2013-06-19 02:21:00,65.0,62.0,-100.00,NNE,20,16.0,22.0,90,-99.99,,,-99.99,,2013-06-19 06:21:00,
2013-06-19 02:33:00,65.0,61.0,-100.00,NNE,20,16.0,22.0,89,-99.99,,,-99.99,,2013-06-19 06:33:00,
2013-06-19 02:42:00,64.0,60.0,-100.00,NNE,20,16.0,22.0,86,-99.99,,,-99.99,,2013-06-19 06:42:00,
2013-06-19 02:52:00,64.0,60.0,-100.00,NNE,20,16.0,22.0,86,-99.99,,,-99.99,,2013-06-19 06:52:00,
2013-06-19 03:01:00,64.0,60.0,-100.00,NNE,20,16.0,22.0,86,-99.99,,,-99.99,,2013-06-19 07:01:00,
2013-06-19 03:11:00,64.0,60.0,-100.00,NNE,20,16.0,22.0,86,-99.99,,,-99.99,,2013-06-19 07:11:00,
2013-06-19 03:22:00,64.0,60.0,-100.00,NNE,20,16.0,20.0,85,-99.99,,,-99.99,,2013-06-19 07:22:00,
2013-06-19 03:33:00,64.0,59.0,-100.00,NNE,20,16.0,20.0,84,-99.99,,,-99.99,,2013-06-19 07:33:00,
2013-06-19 03:43:00,64.0,59.0,-100.00,NNE,20,13.0,18.0,85,-99.99,,,-99.99,,2013-06-19 07:43:00,
2013-06-19 03:53:00,64.0,59.0,-100.00,NNE,20,13.0,18.0,85,-99.99,,,-99.99,,2013-06-19 07:53:00,
2013-06-19 04:01:00,63.0,59.0,-100.00,NNE,20,13.0,18.0,85,-99.99,,,-99.99,,2013-06-19 08:01:00,
2013-06-19 04:11:00,63.0,59.0,-100.00,NNE,20,13.0,18.0,85,-99.99,,,-99.99,,2013-06-19 08:11:00,
2013-06-19 04:22:00,63.0,59.0,-100.00,North,10,13.0,18.0,85,-99.99,,,-99.99,,2013-06-19 08:22:00,
2013-06-19 04:33:00,63.0,59.0,-100.00,North,10,13.0,18.0,85,-99.99,,,-99.99,,2013-06-19 08:33:00,
2013-06-19 04:42:00,63.0,59.0,-100.00,North,360,13.0,18.0,85,-99.99,,,-99.99,,2013-06-19 08:42:00,
2013-06-19 04:53:00,63.0,58.0,-100.00,North,360,16.0,20.0,82,-99.99,,,-99.99,,2013-06-19 08:53:00,
2013-06-19 05:01:00,63.0,58.0,-100.00,North,360,11.0,16.0,84,-99.99,,,-99.99,,2013-06-19 09:01:00,
2013-06-19 05:11:00,63.0,58.0,-100.00,North,360,11.0,16.0,84,-99.99,,,-99.99,,2013-06-19 09:11:00,
2013-06-19 05:22:00,63.0,58.0,-100.00,North,360,11.0,13.0,84,-99.99,,,-99.99,,2013-06-19 09:22:00,
2013-06-19 05:34:00,63.0,58.0,-100.00,North,360,11.0,13.0,84,-99.99,,,-99.99,,2013-06-19 09:34:00,
2013-06-19 05:43:00,63.0,57.0,-100.00,North,360,11.0,16.0,81,-99.99,,,-99.99,,2013-06-19 09:43:00,
2013-06-19 05:53:00,62.0,58.0,-100.00,North,360,9.0,13.0,84,-99.99,,,-99.99,,2013-06-19 09:53:00,
2013-06-19 06:01:00,62.0,58.0,-100.00,North,350,9.0,13.0,86,-99.99,,,-99.99,,2013-06-19 10:01:00,
2013-06-19 06:11:00,62.0,58.0,-100.00,North,350,9.0,13.0,86,-99.99,,,-99.99,,2013-06-19 10:11:00,
2013-06-19 06:22:00,62.0,58.0,-100.00,North,350,11.0,16.0,85,-99.99,,,-99.99,,2013-06-19 10:22:00,
2013-06-19 06:33:00,62.0,58.0,-100.00,North,350,11.0,16.0,85,-99.99,,,-99.99,,2013-06-19 10:33:00,
2013-06-19 06:42:00,62.0,57.0,-100.00,North,350,11.0,13.0,85,-99.99,,,-99.99,,2013-06-19 10:42:00,
2013-06-19 06:52:00,62.0,57.0,-100.00,North,350,11.0,16.0,84,-99.99,,,-99.99,,2013-06-19 10:52:00,
2013-06-19 07:01:00,62.0,57.0,-100.00,North,350,13.0,18.0,82,-99.99,,,-99.99,,2013-06-19 11:01:00,
2013-06-19 07:11:00,62.0,57.0,-100.00,North,350,13.0,18.0,82,-99.99,,,-99.99,,2013-06-19 11:11:00,
2013-06-19 07:22:00,63.0,56.0,-100.00,North,360,13.0,18.0,79,-99.99,,,-99.99,,2013-06-19 11:22:00,
2013-06-19 07:32:00,63.0,56.0,-100.00,North,10,13.0,20.0,77,-99.99,,,-99.99,,2013-06-19 11:32:00,
2013-06-19 07:42:00,63.0,56.0,-100.00,North,10,13.0,20.0,77,-99.99,,,-99.99,,2013-06-19 11:42:00,
2013-06-19 07:53:00,63.0,55.0,-100.00,North,10,16.0,20.0,73,-99.99,,,-99.99,,2013-06-19 11:53:00,
2013-06-19 08:01:00,64.0,54.0,-100.00,North,10,16.0,20.0,70,-99.99,,,-99.99,,2013-06-19 12:01:00,
2013-06-19 08:11:00,64.0,54.0,-100.00,North,10,16.0,20.0,70,-99.99,,,-99.99,,2013-06-19 12:11:00,
2013-06-19 08:22:00,64.0,54.0,-100.00,North,10,16.0,22.0,70,-99.99,,,-99.99,,2013-06-19 12:22:00,
2013-06-19 08:34:00,65.0,54.0,-100.00,North,10,13.0,20.0,67,-99.99,,,-99.99,,2013-06-19 12:34:00,
2013-06-19 08:44:00,65.0,54.0,-100.00,North,10,13.0,20.0,67,-99.99,,,-99.99,,2013-06-19 12:44:00,
2013-06-19 08:52:00,65.0,54.0,-100.00,North,10,13.0,20.0,66,-99.99,,,-99.99,,2013-06-19 12:52:00,
2013-06-19 09:02:00,65.0,54.0,-100.00,North,10,13.0,20.0,66,-99.99,,,-99.99,,2013-06-19 13:02:00,
2013-06-19 09:11:00,65.0,54.0,-100.00,North,10,13.0,20.0,66,-99.99,,,-99.99,,2013-06-19 13:11:00,
2013-06-19 09:22:00,65.0,54.0,-100.00,North,10,13.0,20.0,66,-99.99,,,-99.99,,2013-06-19 13:22:00,
2013-06-19 09:33:00,65.0,54.0,-100.00,North,10,11.0,16.0,67,-99.99,,,-99.99,,2013-06-19 13:33:00,
2013-06-19 09:42:00,65.0,54.0,-100.00,North,10,13.0,16.0,66,-99.99,,,-99.99,,2013-06-19 13:42:00,
2013-06-19 09:53:00,65.0,54.0,-100.00,NNE,20,11.0,16.0,66,-99.99,,,-99.99,,2013-06-19 13:53:00,
2013-06-19 10:01:00,65.0,53.0,-100.00,NNE,30,9.0,13.0,64,-99.99,,,-99.99,,2013-06-19 14:01:00,
2013-06-19 10:11:00,65.0,53.0,-100.00,NNE,30,9.0,13.0,64,-99.99,,,-99.99,,2013-06-19 14:11:00,
2013-06-19 10:22:00,66.0,54.0,-100.00,NE,40,11.0,16.0,64,-99.99,,,-99.99,,2013-06-19 14:22:00,
2013-06-19 10:33:00,66.0,54.0,-100.00,ENE,60,9.0,13.0,64,-99.99,,,-99.99,,2013-06-19 14:33:00,
2013-06-19 10:43:00,66.0,54.0,-100.00,ENE,60,9.0,13.0,64,-99.99,,,-99.99,,2013-06-19 14:43:00,
2013-06-19 10:52:00,67.0,54.0,-100.00,ENE,60,7.0,11.0,62,-99.99,,,-99.99,,2013-06-19 14:52:00,
2013-06-19 11:01:00,68.0,54.0,-100.00,ENE,60,9.0,13.0,62,-99.99,,,-99.99,,2013-06-19 15:01:00,
2013-06-19 11:11:00,68.0,54.0,-100.00,ENE,60,9.0,13.0,62,-99.99,,,-99.99,,2013-06-19 15:11:00,
2013-06-19 11:22:00,68.0,54.0,-100.00,ENE,60,9.0,13.0,62,-99.99,,,-99.99,,2013-06-19 15:22:00,
2013-06-19 11:33:00,68.0,53.0,-100.00,NE,50,9.0,13.0,59,-99.99,,,-99.99,,2013-06-19 15:33:00,
2013-06-19 11:42:00,68.0,54.0,-100.00,East,80,7.0,9.0,60,-99.99,,,-99.99,,2013-06-19 15:42:00,
2013-06-19 11:52:00,69.0,54.0,-100.00,East,80,7.0,11.0,59,-99.99,,,-99.99,,2013-06-19 15:52:00,
2013-06-19 12:01:00,69.0,54.0,-100.00,East,90,7.0,11.0,59,-99.99,,,-99.99,,2013-06-19 16:01:00,
2013-06-19 12:11:00,69.0,54.0,-100.00,East,90,7.0,11.0,59,-99.99,,,-99.99,,2013-06-19 16:11:00,
2013-06-19 12:21:00,69.0,54.0,-100.00,East,90,7.0,11.0,59,-99.99,,,-99.99,,2013-06-19 16:21:00,
2013-06-19 12:33:00,69.0,53.0,-100.00,East,80,4.0,9.0,55,-99.99,,,-99.99,,2013-06-19 16:33:00,
2013-06-19 12:43:00,69.0,53.0,-100.00,East,90,7.0,9.0,55,-99.99,,,-99.99,,2013-06-19 16:43:00,
2013-06-19 12:52:00,69.0,52.0,-100.00,ESE,110,7.0,9.0,54,-99.99,,,-99.99,,2013-06-19 16:52:00,
2013-06-19 13:02:00,69.0,52.0,-100.00,East,100,4.0,7.0,54,-99.99,,,-99.99,,2013-06-19 17:02:00,
2013-06-19 13:11:00,69.0,52.0,-100.00,East,100,4.0,7.0,54,-99.99,,,-99.99,,2013-06-19 17:11:00,
2013-06-19 13:22:00,70.0,53.0,-100.00,ESE,120,2.0,4.0,54,-99.99,,,-99.99,,2013-06-19 17:22:00,
2013-06-19 13:33:00,70.0,53.0,-100.00,ESE,120,2.0,4.0,54,-99.99,,,-99.99,,2013-06-19 17:33:00,
2013-06-19 13:43:00,71.0,53.0,-100.00,East,80,2.0,4.0,53,-99.99,,,-99.99,,2013-06-19 17:43:00,
2013-06-19 13:53:00,72.0,51.0,-100.00,North,350,7.0,13.0,46,-99.99,,,-99.99,,2013-06-19 17:53:00,
2013-06-19 14:01:00,72.0,51.0,-100.00,NNW,340,9.0,16.0,46,-99.99,,,-99.99,,2013-06-19 18:01:00,
2013-06-19 14:11:00,72.0,51.0,-100.00,NNW,340,9.0,16.0,46,-99.99,,,-99.99,,2013-06-19 18:11:00,
2013-06-19 14:23:00,73.0,50.0,-100.00,NNW,340,7.0,16.0,44,-99.99,,,-99.99,,2013-06-19 18:23:00,
2013-06-19 14:33:00,73.0,50.0,-100.00,NW,310,9.0,18.0,45,-99.99,,,-99.99,,2013-06-19 18:33:00,
2013-06-19 14:43:00,73.0,51.0,-100.00,NW,310,9.0,16.0,45,-99.99,,,-99.99,,2013-06-19 18:43:00,
2013-06-19 14:52:00,73.0,51.0,-100.00,NW,310,9.0,16.0,45,-99.99,,,-99.99,,2013-06-19 18:52:00,
2013-06-19 15:01:00,73.0,50.0,-100.00,NW,310,11.0,18.0,43,-99.99,,,-99.99,,2013-06-19 19:01:00,
2013-06-19 15:11:00,73.0,51.0,-100.00,NW,320,11.0,18.0,46,-99.99,,,-99.99,,2013-06-19 19:11:00,
2013-06-19 15:22:00,73.0,51.0,-100.00,NW,320,11.0,18.0,46,-99.99,,,-99.99,,2013-06-19 19:22:00,
2013-06-19 15:32:00,73.0,49.0,-100.00,NW,320,11.0,16.0,43,-99.99,,,-99.99,,2013-06-19 19:32:00,
2013-06-19 15:43:00,73.0,49.0,-100.00,NW,320,11.0,16.0,43,-99.99,,,-99.99,,2013-06-19 19:43:00,
2013-06-19 15:52:00,72.0,49.0,-100.00,NNW,330,13.0,18.0,44,-99.99,,,-99.99,,2013-06-19 19:52:00,
2013-06-19 16:02:00,72.0,49.0,-100.00,NW,320,9.0,16.0,43,-99.99,,,-99.99,,2013-06-19 20:02:00,
2013-06-19 16:11:00,72.0,49.0,-100.00,NW,320,9.0,16.0,43,-99.99,,,-99.99,,2013-06-19 20:11:00,
2013-06-19 16:22:00,73.0,49.0,-100.00,NW,310,9.0,16.0,43,-99.99,,,-99.99,,2013-06-19 20:22:00,
2013-06-19 16:33:00,73.0,48.0,-100.00,NNW,340,9.0,13.0,40,-99.99,,,-99.99,,2013-06-19 20:33:00,
2013-06-19 16:42:00,73.0,48.0,-100.00,NNW,340,9.0,13.0,40,-99.99,,,-99.99,,2013-06-19 20:42:00,
2013-06-19 16:52:00,73.0,49.0,-100.00,WNW,300,7.0,13.0,42,-99.99,,,-99.99,,2013-06-19 20:52:00,
2013-06-19 17:01:00,73.0,49.0,-100.00,NW,320,7.0,13.0,42,-99.99,,,-99.99,,2013-06-19 21:01:00,
2013-06-19 17:11:00,73.0,49.0,-100.00,NW,320,7.0,13.0,42,-99.99,,,-99.99,,2013-06-19 21:11:00,
2013-06-19 17:22:00,74.0,48.0,-100.00,NNW,330,7.0,9.0,39,-99.99,,,-99.99,,2013-06-19 21:22:00,
2013-06-19 17:33:00,74.0,48.0,-100.00,NNW,330,7.0,9.0,39,-99.99,,,-99.99,,2013-06-19 21:33:00,
2013-06-19 17:44:00,75.0,48.0,-100.00,NE,50,4.0,7.0,38,-99.99,,,-99.99,,2013-06-19 21:44:00,
2013-06-19 17:52:00,76.0,48.0,-100.00,East,90,4.0,9.0,37,-99.99,,,-99.99,,2013-06-19 21:52:00,
2013-06-19 18:01:00,75.0,50.0,-100.00,ESE,120,7.0,11.0,40,-99.99,,,-99.99,,2013-06-19 22:01:00,
2013-06-19 18:11:00,75.0,50.0,-100.00,ESE,120,4.0,7.0,41,-99.99,,,-99.99,,2013-06-19 22:11:00,
2013-06-19 18:22:00,75.0,50.0,-100.00,ESE,120,4.0,7.0,41,-99.99,,,-99.99,,2013-06-19 22:22:00,
2013-06-19 18:34:00,75.0,49.0,-100.00,ESE,120,7.0,11.0,40,-99.99,,,-99.99,,2013-06-19 22:34:00,
2013-06-19 18:42:00,75.0,49.0,-100.00,ESE,120,7.0,11.0,40,-99.99,,,-99.99,,2013-06-19 22:42:00,
2013-06-19 18:53:00,75.0,49.0,-100.00,ESE,120,7.0,11.0,40,-99.99,,,-99.99,,2013-06-19 22:53:00,
2013-06-19 19:01:00,75.0,48.0,-100.00,ESE,110,7.0,7.0,37,-99.99,,,-99.99,,2013-06-19 23:01:00,
2013-06-19 19:11:00,75.0,48.0,-100.00,ESE,110,7.0,7.0,37,-99.99,,,-99.99,,2013-06-19 23:11:00,
2013-06-19 19:22:00,75.0,50.0,-100.00,ESE,110,7.0,7.0,41,-99.99,,,-99.99,,2013-06-19 23:22:00,
2013-06-19 19:33:00,75.0,50.0,-100.00,ESE,110,7.0,7.0,41,-99.99,,,-99.99,,2013-06-19 23:33:00,
2013-06-19 19:43:00,75.0,51.0,-100.00,ESE,110,7.0,7.0,43,-99.99,,,-99.99,,2013-06-19 23:43:00,
2013-06-19 19:52:00,75.0,51.0,-100.00,ESE,120,7.0,7.0,43,-99.99,,,-99.99,,2013-06-19 23:52:00,
2013-06-19 20:01:00,74.0,51.0,-100.00,ESE,120,7.0,7.0,43,-99.99,,,-99.99,,2013-06-20 00:01:00,
2013-06-19 20:11:00,74.0,51.0,-100.00,ESE,120,7.0,7.0,43,-99.99,,,-99.99,,2013-06-20 00:11:00,
2013-06-19 20:22:00,74.0,51.0,-100.00,ESE,120,7.0,7.0,43,-99.99,,,-99.99,,2013-06-20 00:22:00,
2013-06-19 20:33:00,73.0,52.0,-100.00,ESE,120,4.0,4.0,47,-99.99,,,-99.99,,2013-06-20 00:33:00,
2013-06-19 20:43:00,73.0,52.0,-100.00,SE,130,4.0,7.0,47,-99.99,,,-99.99,,2013-06-20 00:43:00,
2013-06-19 20:52:00,73.0,52.0,-100.00,SE,130,4.0,7.0,47,-99.99,,,-99.99,,2013-06-20 00:52:00,
2013-06-19 21:01:00,72.0,53.0,-100.00,ESE,120,4.0,7.0,52,-99.99,,,-99.99,,2013-06-20 01:01:00,
2013-06-19 21:11:00,72.0,53.0,-100.00,ESE,120,4.0,7.0,52,-99.99,,,-99.99,,2013-06-20 01:11:00,
2013-06-19 21:22:00,72.0,53.0,-100.00,ESE,120,4.0,7.0,52,-99.99,,,-99.99,,2013-06-20 01:22:00,
2013-06-19 21:33:00,71.0,53.0,-100.00,South,170,9.0,13.0,54,-99.99,,,-99.99,,2013-06-20 01:33:00,
2013-06-19 21:43:00,70.0,58.0,-100.00,South,180,13.0,16.0,67,-99.99,,,-99.99,,2013-06-20 01:43:00,
2013-06-19 21:52:00,70.0,58.0,-100.00,South,180,13.0,16.0,67,-99.99,,,-99.99,,2013-06-20 01:52:00,
2013-06-19 22:02:00,69.0,59.0,-100.00,South,170,13.0,16.0,71,-99.99,,,-99.99,,2013-06-20 02:02:00,
2013-06-19 22:11:00,69.0,59.0,-100.00,South,170,13.0,16.0,71,-99.99,,,-99.99,,2013-06-20 02:11:00,
2013-06-19 22:23:00,68.0,59.0,-100.00,South,170,11.0,13.0,72,-99.99,,,-99.99,,2013-06-20 02:23:00,
2013-06-19 22:33:00,68.0,59.0,-100.00,South,170,11.0,13.0,72,-99.99,,,-99.99,,2013-06-20 02:33:00,
2013-06-19 22:43:00,67.0,59.0,-100.00,South,180,9.0,11.0,74,-99.99,,,-99.99,,2013-06-20 02:43:00,
2013-06-19 22:52:00,67.0,59.0,-100.00,South,180,9.0,11.0,74,-99.99,,,-99.99,,2013-06-20 02:52:00,
2013-06-19 23:02:00,67.0,58.0,-100.00,South,180,9.0,13.0,73,-99.99,,,-99.99,,2013-06-20 03:02:00,
2013-06-19 23:11:00,67.0,58.0,-100.00,South,180,9.0,13.0,73,-99.99,,,-99.99,,2013-06-20 03:11:00,
2013-06-19 23:22:00,67.0,58.0,-100.00,South,190,9.0,11.0,73,-99.99,,,-99.99,,2013-06-20 03:22:00,
2013-06-19 23:32:00,67.0,58.0,-100.00,South,190,9.0,13.0,71,-99.99,,,-99.99,,2013-06-20 03:32:00,
2013-06-19 23:43:00,67.0,57.0,-100.00,South,180,9.0,11.0,70,-99.99,,,-99.99,,2013-06-20 03:43:00,
2013-06-19 23:53:00,67.0,57.0,-100.00,South,180,9.0,11.0,70,-99.99,,,-99.99,,2013-06-20 03:53:00,